航空気象通報

ウインドサーファーのための航空気象通報による風予報です。

1/31-2/2の航空気象通報

2015年01月31日 22時25分17秒 | TAF

羽田空港
TAF RJTT 311110Z 3112/0118 33025G35KT 9999 FEW030
BECMG 0106/0109 33014KT
日本時間31日21時-1日15時:330度から25ノット、突風35ノット
15-18時:風が変化
18時-2日03時:330度から14ノットの風

静岡空港
TAF RJNS 311105Z 3112/0118 27016KT 9999 FEW030
TEMPO 0106/0109 28020G30KT
日本時間31日21時-2日03時:270度から16ノットの風
但し、1日15-18時の間:ときどき280度から20ノット、突風30ノット

福岡空港
TAF RJFF 311112Z 3112/0118 03006KT 9000 -SHSN FEW015 SCT025 BKN030
TEMPO 3112/3117 4000 -SHSN
BECMG 3119/3121 14003KT
BECMG 0100/0103 34005KT
BECMG 0115/0118 14004KT
日本時間31日21時-1日04時:030度から6ノットの風
04-06時:風が変化
06-09時:140度から3ノットの風
09-12時:風が変化
12-24時:340度から5ノットの風
2日00-03時:風が変化
03時:140度から4ノットの風

那覇空港
TAF ROAH 311105Z 3112/0118 01014KT 9999 FEW030 BKN040
日本時間31日21時-2日03時:010度から14ノットの風

石垣空港
TAF ROIG 311106Z 3112/0118 02012KT 9999 FEW030 BKN040
日本時間31日21時-2日03時:020度から12ノットの風

マウイのカフルイ空港
PHOG 311145Z 3112/0112 04006KT P6SM SCT035
FM312100 02011KT P6SM FEW025 SCT040
FM010600 04006KT P6SM SCT040 AMD LTD TO WX VIS AND WIND TIL 311600
ハワイ時間31日02-11時:040度から6ノットの風
11-20時:020度から11ノットの風
20時-1日02時:040度から6ノットの風

サイパン空港
TAF PGSN 311120Z 3112/0112 04011KT P6SM VCSH SCT020 SCT050
FM010100 05016G24KT P6SM VCSH SCT022 SCT050
マリアナ時間31日22時-1日11時:040度から11ノットの風
11-22時:050度から16ノット、突風24ノット

コメント
この記事をはてなブックマークに追加

1/30-2/1の航空気象通報

2015年01月31日 00時23分42秒 | TAF

羽田空港
TAF RJTT 301105Z 3012/3118 33010KT 9999 FEW010 BKN020
BECMG 3103/3106 32022G32KT
日本時間30日21時-31日12時:330度から10ノットの風
12-15時:風が変化
15時-1日03時:320度から22ノット、突風32ノット

静岡空港
TAF RJNS 301107Z 3012/3118 26016KT 9999 FEW030
BECMG 3013/3015 26020G30KT
日本時間30日21-22時:260度から16ノットの風
22-24時:風が変化
31日00時-1日03時:260度から20ノット、突風30ノット

福岡空港
TAF RJFF 301108Z 3012/3118 32010KT 9999 FEW020 BKN040
BECMG 3109/3112 03010KT
TEMPO 3109/3115 3000 -SHSN
日本時間30日21時-31日18時:320度から10ノットの風
18-21時:風が変化
21時-1日03時:030度から10ノットの風

但し、31日18-24時の間:ときどき

那覇空港
TAF ROAH 301105Z 3012/3118 36020KT 9999 FEW020 BKN035
日本時間30日21時-1日03時:360度から20ノットの風

石垣空港
TAF ROIG 301106Z 3012/3118 01015KT 9999 FEW025 BKN040
TEMPO 3012/3015 01018G28KT
日本時間30日21時-1日03時:010度から15ノットの風
但し、31日21-24時の間:ときどき010度から18ノット、突風28ノット

マウイのカフルイ空港
PHOG 301126Z 3012/3112 22008KT P6SM VCSH SCT025 SCT035
FM302000 34010KT P6SM SCT025 BKN035
FM310600 02011G16KT P6SM SCT025 SCT035 AMD LTD TO WX VIS AND WIND TIL 301600
ハワイ時間31日02-10時:220度から8ノットの風

10-20時:340度から10ノットの風

20時-31日02時:020度から11ノット、突風16ノット

サイパン空港
TAF PGSN 301123Z 3012/3112 05015G22KT P6SM VCSH SCT018 BKN040
FM302300 06016G24KT P6SM VCSH SCT020 SCT050
マリアナ時間30日22時-31日09時:050度から15ノット、突風22ノット
09-22時:060度から16ノット、突風24ノット

コメント
この記事をはてなブックマークに追加

1/29-1/31の航空気象通報

2015年01月29日 23時16分10秒 | TAF

羽田空港
TAF RJTT 291110Z 2912/3018 10010KT 9999 FEW020 SCT050
BECMG 2917/2919 34010KT
TEMPO 2919/2921 3000 -SN
TEMPO 2921/3003 1500 -SN FEW005 BKN008
TEMPO 3003/3006 3000 -SNRA FEW005 BKN008
TEMPO 3006/3012 4000 -RA BR
日本時間29日21時-30日02時:100度から10ノットの風
02-04時:風が変化
04時-31日03時:340度から10ノットの風

但し、30日04-12時の間:ときどき
但し、30日12-15時の間:ときどき
但し、30日15-21時の間:ときどき

静岡空港
TAF RJNS 291105Z 2912/3018 34004KT 9999 FEW020
TEMPO 2921/3006 4000 -RA BR FEW005 BKN008
BECMG 3012/3015 27018G28KT
日本時間29日21時-30日21時:340度から4ノットの風
18-21時:風が変化
21時-31日03時:270度から18ノット、突風28ノット

但し、30日06-15時の間:ときどき

福岡空港
TAF RJFF 291107Z 2912/3018 14005KT 8000 -SHRA FEW010 SCT020 BKN030
TEMPO 2913/2918 4000 -SHRA BR
BECMG 3000/3003 33010KT
日本時間29日21時-30日09時:140度から5ノットの風
09-12時:風が変化
12時-31日03時:330度から10ノットの風

那覇空港
TAF ROAH 291105Z 2912/3018 02003KT 9999 FEW025
BECMG 3000/3003 36019KT
日本時間29日21時-30日09時:020度から3ノットの風
09-12時:風が変化
12時-31日03時:360度から19ノットの風

石垣空港
TAF ROIG 291107Z 2912/3018 04005KT 9999 FEW015 BKN035
TEMPO 2919/2921 02016G30KT 4000 SHRA
BECMG 2920/2922 02015KT
TEMPO 2921/2923 02017G27KT
日本時間29日21時-30日05時:040度から5ノットの風
但し、30日04-06時の間:ときどき020度から16ノット、突風30ノット
05-07時:風が変化
07時-31日03時:020度から15ノットの風
但し、30日06-08時の間:ときどき020度から17ノット、突風27ノット

但し、30日04-06時の間:ときどき

マウイのカフルイ空港
PHOG 291136Z 2912/3012 17004KT P6SM FEW030 FEW045
FM292100 23010KT P6SM FEW030 BKN050
FM300500 20006KT P6SM FEW030 SCT045 AMD LTD TO WX VIS AND WIND TIL 291600
ハワイ時間29日02-11時:170度から4ノットの風

11-19時:230度から10ノットの風

19時-30日02時:200度から6ノットの風

サイパン空港
TAF PGSN 291120Z 2912/3012 VRB06KT P6SM VCSH SCT020 SCT050
FM300100 04013KT P6SM VCSH SCT022 SCT050
マリアナ時間29日22時-30日11時:風向不定6ノットの風
11-22時:040度から13ノットの風

コメント
この記事をはてなブックマークに追加

1/28-1/30の航空気象通報

2015年01月28日 23時54分50秒 | TAF

羽田空港
TAF RJTT 281107Z 2812/2918 36010KT 9999 FEW030
BECMG 2903/2906 10006KT
BECMG 2915/2918 34006KT
日本時間28日21時-29日12時:360度から10ノットの風
12-15時:風が変化
15-24時:100度から6ノットの風
30日00-03時:風が変化
03時:340度から6ノットの風

静岡空港
TAF RJNS 281106Z 2812/2918 32004KT 9999 FEW030 BKN050
BECMG 2900/2903 16006KT
BECMG 2909/2912 31005KT
日本時間28日21時-29日09時:320度から4ノットの風
09-12時:風が変化
12-18時:160度から6ノットの風
18-21時:風が変化
21時-30日03時:310度から5ノットの風

福岡空港
TAF RJFF 281111Z 2812/2918 05005KT 9999 FEW035 SCT045
BECMG 2812/2814 07005KT
日本時間28日21時:050度から5ノットの風
21-23時:風が変化
23時-30日03時:070度から5ノットの風

那覇空港
TAF ROAH 281107Z 2812/2918 04008KT 9999 FEW030 BKN045
日本時間28日21時-30日03時:040度から8ノットの風

石垣空港
TAF ROIG 281111Z 2812/2918 03015KT 9999 SCT020 BKN035
日本時間28日21時-30日03時:030度から15ノットの風

マウイのカフルイ空港
PHOG 281123Z 2812/2912 17005KT P6SM BKN045
FM282000 02010G15KT P6SM FEW030 SCT045
FM290500 18005KT P6SM FEW030 SCT045 AMD LTD TO WX VIS AND WIND TIL 281600
ハワイ時間28日02-10時:170度から5ノットの風

10-19時:020度から10ノット、突風15ノット
19時-29日02時:180度から5ノットの風

サイパン空港
TAF PGSN 281131Z 2812/2912 09008KT P6SM VCSH FEW020 SCT050
マリアナ時間28日22時-29日22時:090度から8ノットの風

コメント
この記事をはてなブックマークに追加

1/27-1/29の航空気象通報

2015年01月27日 23時30分53秒 | TAF

羽田空港
TAF RJTT 271105Z 2712/2818 34016KT 9999 FEW030 BKN050
TEMPO 2712/2715 34018G28KT
TEMPO 2806/2809 35022G32KT
日本時間27日21時-29日03時:340度から16ノットの風
但し、27日21-24時の間:ときどき340度から18ノット、突風28ノット
但し、28日15-18時の間:ときどき350度から22ノット、突風32ノット

静岡空港
TAF RJNS 271105Z 2712/2818 27012KT 9999 FEW030
BECMG 2809/2812 33006KT
日本時間27日21時-28日18時:270度から12ノットの風
18-21時:風が変化
21時-29日03時:330度から6ノットの風

福岡空港
TAF RJFF 271108Z 2712/2818 35008KT 9999 FEW020 BKN040
BECMG 2812/2815 08005KT
日本時間27日21時-28日21時:350度から8ノットの風
21-24時:風が変化
29日00-03時:080度から5ノットの風

那覇空港
TAF ROAH 271108Z 2712/2818 01016KT 8000 FEW020 BKN030
日本時間27日21時-29日03時:010度から16ノットの風

石垣空港
TAF ROIG 271109Z 2712/2818 03020KT 8000 FEW020 BKN030
TEMPO 2712/2714 4000 SHRA
BECMG 2815/2818 04010KT
日本時間27日21時-28日24時:030度から20ノットの風
29日00-03時:風が変化
03時:040度から10ノットの風

但し、27日21-23時の間:ときどき

マウイのカフルイ空港
PHOG 271137Z 2712/2812 05005KT P6SM SCT045
FM272000 05012G18KT P6SM FEW030 SCT045
FM280500 05006KT P6SM SCT045
FM281000 13005KT P6SM SCT045 AMD LTD TO WX VIS AND WIND TIL 271600
ハワイ時間27日02-10時:050度から5ノットの風
10-19時:050度から12ノット、突風18ノット
19-24時:050度から6ノットの風
28日00-02時:130度から5ノットの風

サイパン空港
TAF PGSN 271120Z 2712/2812 11009KT P6SM VCSH SCT020 SCT050
マリアナ時間27日22時-28日22時:110度から9ノットの風

コメント
この記事をはてなブックマークに追加